Time;durP1;ratioP1;P1;durP2;ratioP2;P2;SDS_P1;SDS_P2;PMS_P1;PMS_P2;Temp;Humidity;BMP_temperature;BMP_pressure;BME280_temperature;BME280_humidity;BME280_pressure;Samples;Min_cycle;Max_cycle;Signal;HPM_P1;HPM_P2
2023/03/19 00:01:44;;;;;;;13.60;7.85;;;;;;;3.83;48.50;95490.44;5085837;28;20028;-73
2023/03/19 00:04:10;;;;;;;12.82;7.75;;;;;;;3.80;48.53;95485.00;5102916;28;20398;-74
2023/03/19 00:06:35;;;;;;;13.32;7.53;;;;;;;3.73;48.61;95483.78;5104184;28;20024;-72
2023/03/19 00:09:01;;;;;;;13.77;7.63;;;;;;;3.74;49.05;95490.00;5103199;28;20395;-72
2023/03/19 00:11:26;;;;;;;15.00;7.80;;;;;;;3.71;48.98;95482.59;5103054;28;20228;-73
2023/03/19 00:13:52;;;;;;;12.68;7.68;;;;;;;3.69;49.06;95488.44;5104276;28;20110;-73
2023/03/19 00:16:17;;;;;;;13.68;7.45;;;;;;;3.68;49.09;95486.09;5104348;28;20016;-72
2023/03/19 00:18:42;;;;;;;13.32;6.80;;;;;;;3.62;49.23;95491.09;5102791;28;20082;-72
2023/03/19 00:21:08;;;;;;;13.80;7.47;;;;;;;3.62;49.43;95485.66;5104326;28;20620;-72
2023/03/19 00:23:35;;;;;;;13.95;7.10;;;;;;;3.61;49.24;95483.31;5104528;28;20518;-72
2023/03/19 00:26:01;;;;;;;16.42;7.70;;;;;;;3.58;49.18;95476.69;5106972;28;20028;-72
2023/03/19 00:28:26;;;;;;;14.00;7.47;;;;;;;3.52;49.18;95480.16;5106619;28;20107;-75
2023/03/19 00:30:52;;;;;;;13.35;7.20;;;;;;;3.44;49.20;95471.97;5107766;28;20479;-73
2023/03/19 00:33:18;;;;;;;14.85;7.07;;;;;;;3.47;49.36;95473.91;5107618;28;20031;-72
2023/03/19 00:35:45;;;;;;;15.38;7.97;;;;;;;3.44;49.58;95471.16;5106649;28;20023;-72
2023/03/19 00:38:10;;;;;;;12.93;7.50;;;;;;;3.44;49.89;95468.44;5107672;28;20043;-72
2023/03/19 00:40:36;;;;;;;13.60;7.05;;;;;;;3.42;49.85;95466.09;5106337;28;20023;-72
2023/03/19 00:43:01;;;;;;;15.52;7.53;;;;;;;3.40;50.13;95464.94;5106318;28;20043;-72
2023/03/19 00:45:29;;;;;;;11.50;7.28;;;;;;;3.41;49.95;95461.81;5107431;28;20027;-72
2023/03/19 00:47:55;;;;;;;13.05;7.68;;;;;;;3.36;49.88;95453.25;5106566;28;20501;-71
2023/03/19 00:50:20;;;;;;;13.82;7.80;;;;;;;3.32;49.76;95450.50;5105968;28;20052;-72
2023/03/19 00:52:46;;;;;;;10.90;6.95;;;;;;;3.33;50.12;95456.72;5106186;28;20046;-73
2023/03/19 00:55:11;;;;;;;12.60;8.23;;;;;;;3.27;50.07;95448.16;5106185;28;20071;-72
2023/03/19 00:57:36;;;;;;;10.73;7.15;;;;;;;3.25;50.46;95449.66;5107100;28;20050;-71
2023/03/19 01:00:03;;;;;;;12.98;7.57;;;;;;;3.20;50.43;95442.63;5106104;28;20423;-72
2023/03/19 01:02:30;;;;;;;10.43;6.80;;;;;;;3.15;50.57;95440.25;5105559;28;20107;-72
2023/03/19 01:04:55;;;;;;;11.43;7.70;;;;;;;3.16;50.43;95439.91;5106435;28;20028;-73
2023/03/19 01:07:21;;;;;;;11.82;7.43;;;;;;;3.12;50.56;95439.09;5107008;28;20027;-73
2023/03/19 01:09:46;;;;;;;12.10;7.18;;;;;;;3.11;50.61;95436.75;5107491;28;20024;-72
2023/03/19 01:12:12;;;;;;;12.15;6.50;;;;;;;3.12;50.60;95439.09;5105906;28;20028;-72
2023/03/19 01:14:37;;;;;;;10.52;6.90;;;;;;;3.08;50.63;95434.78;5105576;28;20024;-72
2023/03/19 01:17:03;;;;;;;10.48;6.63;;;;;;;3.06;50.42;95437.88;5106021;28;20559;-72
2023/03/19 01:19:28;;;;;;;9.40;6.63;;;;;;;3.06;50.74;95429.72;5106578;28;20062;-72
2023/03/19 01:21:54;;;;;;;11.85;6.60;;;;;;;3.04;50.75;95439.41;5107169;28;20112;-72
2023/03/19 01:24:19;;;;;;;10.90;6.72;;;;;;;3.02;50.92;95439.00;5105323;28;20035;-71
2023/03/19 01:26:45;;;;;;;12.73;7.63;;;;;;;2.96;50.88;95433.13;5107310;28;20397;-72
2023/03/19 01:29:10;;;;;;;13.27;7.03;;;;;;;2.97;50.88;95431.19;5106720;28;20032;-71
2023/03/19 01:31:36;;;;;;;16.58;8.13;;;;;;;2.95;51.28;95436.25;5106702;28;20028;-72
2023/03/19 01:34:01;;;;;;;14.15;8.60;;;;;;;2.93;51.51;95436.63;5107368;28;20027;-72
2023/03/19 01:36:27;;;;;;;18.60;10.05;;;;;;;2.94;51.46;95440.88;5104526;28;20123;-71
2023/03/19 01:38:52;;;;;;;26.67;12.65;;;;;;;2.89;51.65;95435.81;5105405;28;20111;-72
2023/03/19 01:41:18;;;;;;;23.45;12.73;;;;;;;2.89;51.79;95435.81;5105441;28;20035;-71
2023/03/19 01:43:43;;;;;;;26.45;14.13;;;;;;;2.85;51.61;95443.13;5105236;28;20470;-72
2023/03/19 01:46:53;;;;;;;23.15;12.75;;;;;;;2.82;51.85;95443.88;5104764;28;20035;-73
2023/03/19 01:49:20;;;;;;;25.25;14.52;;;;;;;2.77;51.74;95439.56;5106277;28;20564;-72
2023/03/19 01:51:46;;;;;;;23.95;14.23;;;;;;;2.76;51.63;95443.44;5106659;28;20024;-73
2023/03/19 01:54:14;;;;;;;23.48;14.02;;;;;;;2.75;51.48;95447.28;5087942;28;20512;-72
2023/03/19 01:56:41;;;;;;;29.65;15.02;;;;;;;2.74;51.53;95442.25;5104892;28;20020;-71
2023/03/19 01:59:22;;;;;;;31.85;14.32;;;;;;;2.74;51.58;95434.88;5087686;28;20041;-72
2023/03/19 02:02:12;;;;;;;27.52;13.98;;;;;;;2.74;51.74;95444.97;5105107;28;20023;-73
2023/03/19 02:04:38;;;;;;;29.88;14.65;;;;;;;2.71;51.87;95441.06;5104873;28;20027;-73
2023/03/19 02:07:04;;;;;;;26.58;14.02;;;;;;;2.69;51.99;95440.66;5104794;28;20039;-73
2023/03/19 02:09:30;;;;;;;25.67;13.10;;;;;;;2.72;52.22;95441.84;5104745;28;20047;-72
2023/03/19 02:11:56;;;;;;;25.33;11.95;;;;;;;2.71;52.28;95440.28;5106224;28;20019;-73
2023/03/19 02:14:22;;;;;;;23.33;13.30;;;;;;;2.66;52.27;95438.69;5087754;28;20042;-72
2023/03/19 02:16:47;;;;;;;24.45;12.57;;;;;;;2.60;52.52;95434.75;5105527;28;20027;-73
2023/03/19 02:19:16;;;;;;;23.88;12.43;;;;;;;2.59;52.72;95433.97;5104591;28;20039;-72
2023/03/19 02:21:42;;;;;;;23.98;12.52;;;;;;;2.54;52.47;95431.59;5104412;28;20028;-72
2023/03/19 02:24:22;;;;;;;21.00;12.07;;;;;;;2.49;52.77;95439.31;5106683;28;20034;-72
2023/03/19 02:26:48;;;;;;;20.38;10.93;;;;;;;2.46;52.85;95438.09;5105855;28;20289;-73
2023/03/19 02:29:13;;;;;;;19.30;10.38;;;;;;;2.50;52.41;95436.22;5105848;28;20035;-72
2023/03/19 02:31:39;;;;;;;17.48;9.68;;;;;;;2.55;52.40;95440.53;5104120;28;20423;-72
2023/03/19 02:34:17;;;;;;;16.40;9.85;;;;;;;2.46;52.33;95429.94;5105549;28;20031;-72
2023/03/19 02:36:46;;;;;;;16.17;9.07;;;;;;;2.51;52.36;95443.19;5105786;28;20176;-71
2023/03/19 02:39:17;;;;;;;16.50;8.85;;;;;;;2.51;52.19;95447.84;5104365;28;20034;-72
2023/03/19 02:41:43;;;;;;;13.90;8.98;;;;;;;2.49;52.18;95447.44;5103543;28;20028;-72
2023/03/19 02:44:10;;;;;;;19.55;9.85;;;;;;;2.46;52.51;95446.25;5104206;28;20023;-72
2023/03/19 02:46:36;;;;;;;18.08;8.90;;;;;;;2.47;52.40;95458.69;5103368;28;20020;-72
2023/03/19 02:49:01;;;;;;;17.42;8.90;;;;;;;2.47;52.36;95455.19;5105027;28;20439;-72
2023/03/19 02:51:26;;;;;;;15.23;9.27;;;;;;;2.50;52.38;95452.50;5105228;28;20074;-73
2023/03/19 02:53:52;;;;;;;14.57;8.98;;;;;;;2.47;52.63;95447.03;5105057;28;20521;-73
2023/03/19 02:56:17;;;;;;;18.38;9.23;;;;;;;2.40;52.76;95456.66;5103704;28;20026;-73
2023/03/19 02:58:42;;;;;;;22.55;10.35;;;;;;;2.41;52.71;95452.03;5103306;28;20417;-73
2023/03/19 03:01:08;;;;;;;20.83;10.52;;;;;;;2.35;53.03;95446.16;5103834;28;20496;-73
2023/03/19 03:03:33;;;;;;;21.00;11.55;;;;;;;2.38;52.85;95450.81;5104841;28;20043;-72
2023/03/19 03:05:59;;;;;;;21.85;11.88;;;;;;;2.36;53.02;95458.56;5105219;28;20111;-72
2023/03/19 03:08:25;;;;;;;20.33;12.27;;;;;;;2.37;53.21;95465.53;5104822;28;20019;-73
2023/03/19 03:10:50;;;;;;;23.30;11.88;;;;;;;2.36;53.24;95461.28;5103765;28;20032;-72
2023/03/19 03:13:16;;;;;;;21.83;12.57;;;;;;;2.37;53.26;95464.75;5103735;28;20463;-72
2023/03/19 03:15:41;;;;;;;24.40;11.60;;;;;;;2.38;53.52;95466.31;5103242;28;20486;-72
2023/03/19 03:18:07;;;;;;;19.30;11.15;;;;;;;2.30;52.97;95459.28;5104986;28;20027;-73
2023/03/19 03:20:32;;;;;;;18.58;9.00;;;;;;;2.38;52.43;95466.31;5103352;28;20099;-72
2023/03/19 03:22:57;;;;;;;17.85;9.38;;;;;;;2.31;52.47;95466.25;5103397;28;20019;-73
2023/03/19 03:25:23;;;;;;;19.58;9.50;;;;;;;2.29;52.42;95465.81;5104647;28;20521;-73
2023/03/19 03:27:48;;;;;;;18.42;9.38;;;;;;;2.26;52.34;95463.88;5104811;28;20031;-73
2023/03/19 03:30:15;;;;;;;17.60;8.57;;;;;;;2.29;52.55;95476.66;5103105;28;20028;-73
2023/03/19 03:32:41;;;;;;;16.38;9.07;;;;;;;2.23;52.47;95470.78;5103501;28;20027;-73
2023/03/19 03:35:07;;;;;;;19.08;9.20;;;;;;;2.27;52.31;95476.28;5103415;28;20035;-73
2023/03/19 03:37:32;;;;;;;16.10;8.40;;;;;;;2.28;52.31;95475.91;5103118;28;20038;-73
2023/03/19 03:39:58;;;;;;;17.98;8.90;;;;;;;2.31;52.35;95477.88;5103056;28;20024;-72
2023/03/19 03:42:24;;;;;;;19.75;8.82;;;;;;;2.25;52.21;95471.22;5085930;28;20431;-73
2023/03/19 03:44:49;;;;;;;13.80;8.40;;;;;;;2.28;52.37;95469.69;5104645;28;20485;-72
2023/03/19 03:47:16;;;;;;;12.50;7.63;;;;;;;2.26;52.22;95467.34;5103009;28;20020;-73
2023/03/19 03:49:42;;;;;;;12.10;7.22;;;;;;;2.26;52.41;95475.50;5104729;28;20023;-73
2023/03/19 03:52:08;;;;;;;15.45;8.00;;;;;;;2.28;52.40;95472.41;5103093;28;20032;-73
2023/03/19 03:54:33;;;;;;;16.85;8.18;;;;;;;2.29;52.38;95476.66;5104206;28;20103;-74
2023/03/19 03:57:00;;;;;;;16.20;8.68;;;;;;;2.26;52.45;95478.22;5105571;28;20104;-74
2023/03/19 03:59:25;;;;;;;15.57;8.93;;;;;;;2.22;52.55;95471.16;5089109;28;20460;-72
2023/03/19 04:01:51;;;;;;;15.90;8.43;;;;;;;2.24;52.56;95480.53;5108795;28;20051;-72
2023/03/19 04:04:16;;;;;;;17.92;9.70;;;;;;;2.20;52.61;95471.56;5108359;28;20111;-72
2023/03/19 04:06:41;;;;;;;16.05;9.38;;;;;;;2.17;52.65;95476.91;5107749;28;20024;-72
2023/03/19 04:09:07;;;;;;;17.60;9.43;;;;;;;2.18;52.72;95473.84;5108257;28;20019;-72
2023/03/19 04:11:34;;;;;;;18.73;8.32;;;;;;;2.15;52.93;95471.09;5108596;27;20088;-72
2023/03/19 04:14:00;;;;;;;14.48;8.75;;;;;;;2.15;52.71;95469.16;5107142;28;20035;-73
2023/03/19 04:16:27;;;;;;;14.88;8.68;;;;;;;2.13;52.92;95474.97;5108373;28;20024;-72
2023/03/19 04:18:53;;;;;;;12.93;8.27;;;;;;;2.08;52.91;95477.22;5108113;28;20114;-72
2023/03/19 04:21:18;;;;;;;14.30;8.45;;;;;;;2.01;53.00;95464.34;5108016;28;20031;-72
2023/03/19 04:23:44;;;;;;;17.92;8.15;;;;;;;1.97;53.01;95473.59;5108577;28;20059;-71
2023/03/19 04:26:10;;;;;;;14.98;8.18;;;;;;;1.95;53.25;95476.69;5106343;28;20202;-71
2023/03/19 04:28:36;;;;;;;12.75;7.85;;;;;;;1.93;52.65;95470.81;5106789;28;20030;-72
2023/03/19 04:31:04;;;;;;;13.50;8.00;;;;;;;1.93;53.10;95470.03;5106593;28;20023;-72
2023/03/19 04:33:30;;;;;;;12.45;7.93;;;;;;;1.95;52.89;95481.28;5106684;28;20027;-73
2023/03/19 04:35:56;;;;;;;15.60;7.40;;;;;;;1.89;53.18;95477.34;5106606;28;20023;-74
2023/03/19 04:38:22;;;;;;;17.05;8.27;;;;;;;1.92;53.17;95479.34;5107653;28;20112;-72
2023/03/19 04:40:48;;;;;;;15.43;8.68;;;;;;;1.89;53.38;95488.19;5106624;28;20019;-72
2023/03/19 04:43:14;;;;;;;17.63;8.88;;;;;;;1.89;53.60;95474.63;5088862;28;20047;-72
2023/03/19 04:45:40;;;;;;;11.98;8.23;;;;;;;1.90;53.32;95477.00;5089699;28;20027;-72
2023/03/19 04:48:05;;;;;;;15.75;8.40;;;;;;;1.86;53.42;95479.66;5106047;28;20024;-73
2023/03/19 04:50:31;;;;;;;12.50;7.97;;;;;;;1.85;53.59;95488.16;5107826;28;20073;-72
2023/03/19 04:52:56;;;;;;;15.85;8.43;;;;;;;1.84;53.54;95490.09;5089323;28;20027;-73
2023/03/19 04:55:22;;;;;;;11.38;7.82;;;;;;;1.87;53.46;95496.69;5109932;28;20046;-72
2023/03/19 04:57:47;;;;;;;17.00;8.98;;;;;;;1.82;53.68;95488.88;5109072;28;20023;-72
2023/03/19 05:00:15;;;;;;;17.90;8.57;;;;;;;1.86;53.62;95493.22;5105731;28;20509;-71
2023/03/19 05:02:41;;;;;;;18.40;9.15;;;;;;;1.86;53.57;95484.28;5107703;27;20592;-71
2023/03/19 05:05:07;;;;;;;15.13;8.23;;;;;;;1.89;53.55;95482.75;5105645;28;20027;-72
2023/03/19 05:07:33;;;;;;;13.93;8.68;;;;;;;1.93;53.59;95494.44;5107780;28;20026;-72
2023/03/19 05:09:58;;;;;;;15.88;9.10;;;;;;;1.97;53.58;95495.28;5106862;28;20028;-73
2023/03/19 05:12:24;;;;;;;17.10;9.23;;;;;;;1.96;53.56;95486.38;5106552;28;20034;-72
2023/03/19 05:14:50;;;;;;;14.27;8.70;;;;;;;2.01;53.31;95493.41;5107222;28;20052;-72
2023/03/19 05:17:16;;;;;;;18.08;9.98;;;;;;;2.02;53.42;95492.25;5105301;28;20043;-72
2023/03/19 05:19:42;;;;;;;15.25;8.80;;;;;;;2.05;53.52;95500.41;5107044;28;20096;-73
2023/03/19 05:22:07;;;;;;;19.38;9.55;;;;;;;2.08;53.60;95493.50;5106391;28;20115;-72
2023/03/19 05:24:33;;;;;;;16.50;9.57;;;;;;;2.10;53.41;95500.09;5105754;28;20038;-72
2023/03/19 05:26:58;;;;;;;14.80;9.40;;;;;;;2.12;53.39;95494.28;5106894;28;20118;-73
2023/03/19 05:29:24;;;;;;;15.65;8.90;;;;;;;2.17;53.42;95493.97;5106751;28;20055;-74
2023/03/19 05:31:50;;;;;;;18.80;10.02;;;;;;;2.23;53.52;95489.00;5107227;28;20024;-73
2023/03/19 05:34:16;;;;;;;16.85;10.35;;;;;;;2.26;53.58;95493.72;5088190;28;20562;-73
2023/03/19 05:36:41;;;;;;;18.45;9.48;;;;;;;2.35;53.46;95492.28;5107146;28;20031;-72
2023/03/19 05:39:07;;;;;;;20.10;10.85;;;;;;;2.35;53.48;95486.03;5104984;28;20422;-73
2023/03/19 05:41:32;;;;;;;22.13;10.10;;;;;;;2.47;53.13;95485.81;5107128;28;20066;-73
2023/03/19 05:43:58;;;;;;;16.23;10.40;;;;;;;2.52;52.94;95496.31;5088141;28;20139;-72
2023/03/19 05:46:23;;;;;;;14.23;9.57;;;;;;;2.61;52.91;95490.59;5106151;28;20059;-72
2023/03/19 05:48:50;;;;;;;15.80;9.13;;;;;;;2.66;52.69;95495.72;5106469;28;20032;-72
2023/03/19 05:51:16;;;;;;;15.80;9.55;;;;;;;2.71;52.75;95495.38;5106219;28;20027;-73
2023/03/19 05:53:41;;;;;;;17.10;9.88;;;;;;;2.77;52.49;95506.69;5105223;28;20023;-72
2023/03/19 05:56:07;;;;;;;20.42;11.57;;;;;;;2.87;52.51;95503.28;5106477;27;20130;-72
2023/03/19 05:58:32;;;;;;;19.17;11.80;;;;;;;2.88;52.41;95502.13;5104508;28;20042;-73
2023/03/19 06:00:57;;;;;;;26.23;13.57;;;;;;;2.88;52.39;95502.91;5104623;28;20032;-73
2023/03/19 06:03:23;;;;;;;21.67;12.30;;;;;;;3.01;52.30;95497.22;5105065;28;20031;-72
2023/03/19 06:05:50;;;;;;;24.13;12.27;;;;;;;3.05;52.32;95493.38;5104548;28;20051;-73
2023/03/19 06:08:15;;;;;;;19.13;11.98;;;;;;;3.08;52.34;95505.41;5104836;28;20038;-73
2023/03/19 06:10:41;;;;;;;20.45;12.60;;;;;;;3.12;52.22;95501.59;5105075;28;20027;-73
2023/03/19 06:13:06;;;;;;;19.10;13.48;;;;;;;3.16;52.26;95512.50;5106110;28;20138;-74
2023/03/19 06:15:32;;;;;;;20.70;12.63;;;;;;;3.18;51.95;95493.88;5104639;28;20036;-73
2023/03/19 06:17:57;;;;;;;21.85;13.18;;;;;;;3.32;51.92;95512.22;5087423;28;20049;-72
2023/03/19 06:20:22;;;;;;;22.42;11.93;;;;;;;3.26;51.85;95500.13;5104184;28;20477;-73
2023/03/19 06:22:48;;;;;;;20.13;11.38;;;;;;;3.40;51.78;95505.69;5104195;28;20488;-73
2023/03/19 06:25:13;;;;;;;18.40;11.68;;;;;;;3.47;51.47;95517.41;5104955;28;20052;-73
2023/03/19 06:27:39;;;;;;;24.60;12.95;;;;;;;3.51;51.48;95513.94;5086958;28;20417;-72
2023/03/19 06:30:06;;;;;;;24.27;13.32;;;;;;;3.52;51.22;95507.34;5104468;28;20085;-73
2023/03/19 06:32:31;;;;;;;24.27;14.48;;;;;;;3.59;51.28;95518.25;5105517;28;20431;-72
2023/03/19 06:34:57;;;;;;;28.38;14.40;;;;;;;3.65;51.15;95508.59;5105716;28;20027;-74
2023/03/19 06:37:22;;;;;;;22.38;14.48;;;;;;;3.79;51.24;95519.56;5105538;27;20036;-74
2023/03/19 06:39:48;;;;;;;25.20;13.95;;;;;;;3.87;50.64;95514.94;5105268;27;20478;-72
2023/03/19 06:42:14;;;;;;;23.45;14.82;;;;;;;3.94;50.69;95523.94;5104229;28;20084;-72
2023/03/19 06:44:39;;;;;;;31.27;15.25;;;;;;;3.99;50.72;95533.69;5105114;28;20038;-72
2023/03/19 06:47:05;;;;;;;23.60;15.20;;;;;;;4.01;50.49;95534.06;5087026;28;20027;-73
2023/03/19 06:49:31;;;;;;;30.73;15.80;;;;;;;4.12;50.22;95532.19;5103670;28;20055;-73
2023/03/19 06:51:56;;;;;;;22.58;14.10;;;;;;;4.23;49.98;95537.69;5104996;28;20057;-73
2023/03/19 06:54:22;;;;;;;25.33;15.70;;;;;;;4.32;49.75;95529.97;5105258;28;20023;-73
2023/03/19 06:56:47;;;;;;;22.63;13.65;;;;;;;4.38;49.33;95535.84;5104943;28;20019;-73
2023/03/19 06:59:13;;;;;;;28.15;15.35;;;;;;;4.52;49.12;95544.03;5086677;28;20035;-72
2023/03/19 07:01:41;;;;;;;24.70;14.80;;;;;;;4.58;48.92;95545.22;5103261;28;20024;-72
2023/03/19 07:04:08;;;;;;;24.80;14.65;;;;;;;4.67;48.69;95545.66;5105394;28;20106;-73
2023/03/19 07:06:33;;;;;;;25.50;15.80;;;;;;;4.75;48.65;95547.25;5103604;28;20540;-73
2023/03/19 07:08:59;;;;;;;22.15;14.68;;;;;;;4.90;48.25;95547.31;5105064;28;20027;-72
2023/03/19 07:11:25;;;;;;;24.30;14.95;;;;;;;4.98;47.81;95543.41;5103633;28;20405;-72
2023/03/19 07:13:50;;;;;;;23.90;13.57;;;;;;;5.11;47.28;95547.34;5104986;28;20024;-72
2023/03/19 07:16:16;;;;;;;24.70;14.82;;;;;;;5.14;47.64;95534.91;5105859;28;20028;-73
2023/03/19 07:18:41;;;;;;;26.92;15.18;;;;;;;5.22;47.26;95533.75;5106280;28;20539;-73
2023/03/19 07:21:06;;;;;;;20.40;14.23;;;;;;;5.32;47.38;95536.47;5107025;28;20422;-73
2023/03/19 07:23:32;;;;;;;21.23;14.38;;;;;;;5.36;47.31;95532.97;5105420;28;20057;-72
2023/03/19 07:25:57;;;;;;;26.13;15.45;;;;;;;5.45;47.07;95539.63;5105822;28;20032;-73
2023/03/19 07:28:23;;;;;;;27.25;15.45;;;;;;;5.53;46.63;95530.25;5105045;28;20027;-73
2023/03/19 07:30:51;;;;;;;22.88;14.48;;;;;;;5.66;46.29;95518.94;5104476;28;20024;-73
2023/03/19 07:33:17;;;;;;;26.63;15.82;;;;;;;5.83;46.04;95529.06;5104359;28;20138;-73
2023/03/19 07:35:42;;;;;;;31.50;17.27;;;;;;;5.99;45.79;95525.97;5085937;28;20028;-74
2023/03/19 07:38:08;;;;;;;26.42;16.38;;;;;;;6.10;45.71;95526.72;5104634;28;20063;-74
2023/03/19 07:40:34;;;;;;;23.10;15.43;;;;;;;6.31;45.25;95531.38;5085753;28;20043;-73
2023/03/19 07:42:59;;;;;;;25.73;16.83;;;;;;;6.43;45.00;95527.44;5105015;28;20047;-73
2023/03/19 07:45:24;;;;;;;31.65;17.77;;;;;;;6.60;44.49;95530.09;5103099;28;20042;-73
2023/03/19 07:47:50;;;;;;;30.17;18.45;;;;;;;6.74;44.26;95537.44;5104281;28;20061;-73
2023/03/19 07:50:16;;;;;;;26.67;17.02;;;;;;;6.88;43.76;95537.38;5103369;28;20073;-73
2023/03/19 07:52:43;;;;;;;27.10;18.23;;;;;;;7.01;43.29;95526.00;5104374;28;20016;-73
2023/03/19 07:55:09;;;;;;;31.98;18.17;;;;;;;7.11;43.19;95531.41;5103328;28;20020;-73
2023/03/19 07:57:34;;;;;;;27.05;17.23;;;;;;;7.22;43.10;95520.38;5103972;28;20084;-74
2023/03/19 08:00:00;;;;;;;29.45;17.92;;;;;;;7.41;42.47;95532.75;5103240;28;20096;-73
2023/03/19 08:02:25;;;;;;;22.33;14.27;;;;;;;7.54;41.95;95525.63;5102734;28;20118;-73
2023/03/19 08:04:51;;;;;;;27.13;14.45;;;;;;;7.71;41.65;95523.94;5103060;28;20110;-72
2023/03/19 08:07:16;;;;;;;20.88;14.38;;;;;;;7.92;40.96;95531.97;5104558;28;20024;-72
2023/03/19 08:09:42;;;;;;;19.45;13.48;;;;;;;8.06;39.99;95522.06;5104096;28;20024;-73
2023/03/19 08:12:08;;;;;;;20.52;12.95;;;;;;;8.06;42.54;95530.25;5104457;28;20027;-70
2023/03/19 08:14:33;;;;;;;24.13;13.43;;;;;;;8.20;42.19;95532.84;5104523;28;20047;-71
2023/03/19 08:16:59;;;;;;;23.65;14.55;;;;;;;8.36;39.79;95529.59;5102751;28;20105;-72
2023/03/19 08:19:25;;;;;;;25.02;14.50;;;;;;;8.54;40.83;95529.38;5102577;28;20100;-70
2023/03/19 08:21:50;;;;;;;22.00;14.27;;;;;;;8.72;39.56;95529.97;5104157;28;20023;-70
2023/03/19 08:24:17;;;;;;;20.00;12.43;;;;;;;8.94;40.76;95538.69;5104149;28;20447;-72
2023/03/19 08:26:43;;;;;;;17.92;13.45;;;;;;;9.19;38.25;95528.19;5104203;28;20118;-73
2023/03/19 08:29:08;;;;;;;18.35;12.70;;;;;;;9.36;37.45;95529.13;5104841;28;20098;-73
2023/03/19 08:31:33;;;;;;;20.27;12.85;;;;;;;9.34;39.13;95527.97;5103957;28;20024;-73
2023/03/19 08:34:01;;;;;;;18.90;12.23;;;;;;;9.68;39.15;95533.34;5104075;28;20019;-72
2023/03/19 08:36:27;;;;;;;18.23;11.73;;;;;;;10.03;36.02;95526.47;5104004;28;20077;-73
2023/03/19 08:38:53;;;;;;;18.38;11.73;;;;;;;10.35;35.52;95525.94;5104008;28;20456;-72
2023/03/19 08:41:20;;;;;;;17.83;13.23;;;;;;;10.57;34.74;95518.06;5102652;28;20501;-73
2023/03/19 08:43:45;;;;;;;18.33;11.95;;;;;;;10.78;33.94;95520.41;5103769;28;20046;-73
2023/03/19 08:46:11;;;;;;;17.73;11.55;;;;;;;11.06;33.28;95521.75;5105773;28;20024;-73
2023/03/19 08:48:37;;;;;;;14.85;9.95;;;;;;;11.33;32.46;95504.28;5106653;28;20529;-75
2023/03/19 08:51:02;;;;;;;13.68;10.02;;;;;;;11.70;32.14;95512.06;5106071;28;20486;-77
2023/03/19 08:53:28;;;;;;;16.17;11.43;;;;;;;12.06;31.88;95505.72;5106206;28;20515;-77
2023/03/19 08:55:59;;;;;;;16.48;11.23;;;;;;;12.35;30.83;95507.72;5106105;28;20035;-81
2023/03/19 08:58:25;;;;;;;15.60;10.77;;;;;;;12.76;31.28;95504.22;5105954;28;20529;-76
2023/03/19 09:00:52;;;;;;;15.18;10.52;;;;;;;13.07;30.60;95504.50;5089231;28;20497;-77
2023/03/19 09:03:18;;;;;;;14.52;10.15;;;;;;;13.41;30.00;95503.91;5106149;28;20123;-77
2023/03/19 09:05:43;;;;;;;15.80;11.75;;;;;;;13.82;29.37;95497.50;5106359;28;20024;-77
2023/03/19 09:08:09;;;;;;;18.17;11.63;;;;;;;14.08;28.33;95494.66;5088940;28;20760;-77
2023/03/19 09:10:35;;;;;;;15.07;11.50;;;;;;;14.24;28.65;95482.69;5105895;28;20032;-76
2023/03/19 09:13:00;;;;;;;15.38;11.30;;;;;;;14.53;28.26;95486.03;5105813;28;20048;-77
2023/03/19 09:15:26;;;;;;;15.63;11.68;;;;;;;14.83;27.30;95481.00;5107110;27;20031;-76
2023/03/19 09:17:52;;;;;;;17.15;11.57;;;;;;;15.11;26.85;95481.94;5105987;28;20107;-76
2023/03/19 09:20:17;;;;;;;13.25;9.40;;;;;;;15.35;26.09;95480.22;5106978;28;20393;-76
2023/03/19 09:22:43;;;;;;;18.50;10.02;;;;;;;15.68;25.65;95487.31;5105581;28;20031;-77
2023/03/19 09:25:08;;;;;;;16.08;8.93;;;;;;;16.02;24.96;95475.22;5088487;28;20467;-76
2023/03/19 09:27:34;;;;;;;14.05;9.65;;;;;;;16.36;24.57;95476.97;5088469;28;20087;-76
2023/03/19 09:30:00;;;;;;;15.85;9.02;;;;;;;16.61;24.18;95465.53;5088480;28;20028;-77
2023/03/19 09:32:25;;;;;;;14.48;8.52;;;;;;;16.94;23.38;95474.03;5105249;28;20559;-77
2023/03/19 09:34:51;;;;;;;10.98;7.70;;;;;;;17.18;23.04;95474.13;5107112;28;20114;-76
2023/03/19 09:37:16;;;;;;;10.70;7.68;;;;;;;17.43;23.14;95472.97;5105237;28;20030;-75
2023/03/19 09:39:42;;;;;;;14.30;7.20;;;;;;;17.77;22.79;95468.97;5105942;28;20034;-75
2023/03/19 09:42:30;;;;;;;10.40;7.45;;;;;;;18.23;21.94;95467.91;5087918;28;20116;-75
2023/03/19 09:44:56;;;;;;;10.70;7.45;;;;;;;18.57;21.59;95463.81;5105504;28;20028;-76
2023/03/19 09:47:32;;;;;;;14.30;8.65;;;;;;;18.88;21.50;95466.19;5105350;28;20112;-76
2023/03/19 09:50:01;;;;;;;13.15;8.25;;;;;;;18.89;20.71;95456.59;5088477;28;20028;-75
2023/03/19 09:52:43;;;;;;;9.90;7.32;;;;;;;19.08;20.75;95459.94;5105654;28;20102;-75
2023/03/19 09:55:37;;;;;;;11.43;6.90;;;;;;;19.48;20.50;95458.59;5104944;28;20590;-76
2023/03/19 09:58:11;;;;;;;9.00;6.90;;;;;;;19.94;19.78;95452.44;5085752;28;20111;-76
2023/03/19 10:00:38;;;;;;;10.20;8.07;;;;;;;20.24;19.01;95450.31;5105366;28;20276;-76
2023/03/19 10:03:25;;;;;;;8.15;6.25;;;;;;;20.57;18.74;95445.16;5087729;28;20027;-77
2023/03/19 10:06:03;;;;;;;7.35;5.93;;;;;;;20.94;18.21;95445.31;5106570;28;20046;-74
2023/03/19 10:08:56;;;;;;;8.55;6.68;;;;;;;21.07;18.00;95438.56;5105013;28;20110;-77
2023/03/19 10:11:40;;;;;;;7.67;5.83;;;;;;;21.25;17.86;95443.03;5104535;28;20100;-77
2023/03/19 10:14:36;;;;;;;8.60;4.93;;;;;;;21.73;17.25;95440.38;5104495;28;20372;-76
2023/03/19 10:17:05;;;;;;;8.20;5.25;;;;;;;22.15;17.16;95438.91;5104625;28;20020;-75
2023/03/19 10:19:38;;;;;;;6.55;5.07;;;;;;;22.64;16.66;95433.97;5087041;28;20028;-75
2023/03/19 10:22:07;;;;;;;8.83;5.00;;;;;;;22.85;16.29;95437.38;5106082;28;20124;-72
2023/03/19 10:24:38;;;;;;;7.93;5.13;;;;;;;23.16;16.18;95425.19;5104534;28;20258;-73
2023/03/19 10:27:10;;;;;;;6.95;5.28;;;;;;;23.45;16.23;95421.88;5087809;28;20144;-72
2023/03/19 10:29:36;;;;;;;8.97;5.37;;;;;;;23.66;16.15;95422.44;5104437;28;20023;-73
2023/03/19 10:32:06;;;;;;;9.20;5.85;;;;;;;23.84;15.73;95413.47;5104271;28;20027;-71
2023/03/19 10:34:33;;;;;;;8.88;5.97;;;;;;;23.68;15.80;95405.81;5104140;28;20031;-71
2023/03/19 10:37:06;;;;;;;7.85;5.78;;;;;;;24.00;15.76;95402.72;5105605;28;20525;-71
2023/03/19 10:39:34;;;;;;;7.65;5.60;;;;;;;24.34;15.44;95389.31;5105315;28;20517;-71
2023/03/19 10:42:24;;;;;;;11.10;7.28;;;;;;;24.50;15.57;95396.94;5103609;28;20104;-71
2023/03/19 10:44:59;;;;;;;8.15;5.80;;;;;;;24.86;15.58;95385.75;5106669;28;20402;-74
2023/03/19 10:47:25;;;;;;;12.13;7.38;;;;;;;25.07;15.33;95381.28;5104620;28;20038;-71
2023/03/19 10:49:51;;;;;;;9.75;6.53;;;;;;;24.85;15.02;95378.59;5104194;28;20019;-70
2023/03/19 10:52:20;;;;;;;9.93;6.07;;;;;;;24.82;15.53;95374.00;5103828;28;20104;-71
2023/03/19 10:54:46;;;;;;;7.20;5.85;;;;;;;25.06;15.09;95364.91;5103830;28;20035;-71
2023/03/19 10:57:26;;;;;;;10.88;7.82;;;;;;;25.10;15.20;95356.97;5105335;28;20354;-70
2023/03/19 10:59:51;;;;;;;12.95;9.30;;;;;;;25.10;15.14;95352.09;5086398;28;20033;-70
2023/03/19 11:02:29;;;;;;;13.48;9.30;;;;;;;25.09;15.17;95355.44;5104920;28;20106;-70
2023/03/19 11:05:25;;;;;;;7.32;5.90;;;;;;;25.25;15.08;95354.56;5087500;28;20036;-71
2023/03/19 11:07:56;;;;;;;10.85;6.05;;;;;;;26.08;14.81;95346.56;5103277;28;20092;-71
2023/03/19 11:10:23;;;;;;;8.27;6.25;;;;;;;26.96;14.22;95345.94;5086188;28;20028;-70
2023/03/19 11:12:56;;;;;;;7.97;5.65;;;;;;;28.29;13.40;95340.53;5103520;28;20039;-70
2023/03/19 11:15:42;;;;;;;9.27;6.32;;;;;;;28.74;12.99;95345.25;5103580;28;20024;-71
2023/03/19 11:18:18;;;;;;;12.88;7.82;;;;;;;27.87;14.16;95333.91;5103533;28;20526;-73
2023/03/19 11:20:58;;;;;;;11.05;6.60;;;;;;;27.66;13.89;95322.47;5103925;28;20027;-73
2023/03/19 11:23:27;;;;;;;10.82;6.68;;;;;;;27.52;13.52;95318.84;5104037;28;20042;-72
2023/03/19 11:25:54;;;;;;;8.40;6.07;;;;;;;27.58;14.70;95315.94;5103822;28;20027;-74
2023/03/19 11:28:25;;;;;;;10.52;6.30;;;;;;;29.86;12.65;95319.88;5103562;28;20106;-73
2023/03/19 11:31:26;;;;;;;8.10;5.53;;;;;;;32.20;11.00;95318.75;5105197;28;20505;-73